Innellan, United Kingdom
Current Conditions -  °F | °C
As of 6:50 AM on Thursday 27 Nov 2014 (Local Time) from EGPF Reporting Station
Haze Haze  
Wind Chill: 43°   Ceiling: 600
Heat Index: 43°   Visibility: 2.6mi
Dew Point: 41°   Wind: 3mph
Humidity: 93%   Direction: 80°E
Pressure: 29.65"   Gusts: NA
Location:  55.89°N, 4.96°W
Report Text: EGPF 270650Z AUTO 08003KT 4200 BR BKN006 BKN020 06/05 Q1004
Loading
Personal Weather Stations






























Interactive Weather Map New forecast layout! Learn more

10-Day Weather Forecast

Advertisements
Track Severe Weather on mobile